Current Weather

Mae Hong Son

Mae Hong Son, Thailand (VTCH)

Report from: Wednesday, April 24, 2024 6:00 PM +07
Current time: Thursday, April 25, 2024 2:45 AM +07

Nearby weather – Weather history – Daily summaries
Weather forecast

Temperature38.0°C (100.4°F)
Heat index42.4°C (108.2°F)
Dew point21.0°C (69.8°F)
Winds 8 kts (4.1 m/s, 9.2 mph) Vrb
Winds variableWinds variable
Visibility4.3 mi. (7 km)
Clouds Few clouds with towering cumulus 2,000 ft. (610 m)
Scattered clouds 2,500 ft. (762 m)
Altimeter29.59 in.Hg (1002 mB)
Relative humidity38 %
Density altitude3,306 ft. (1,008 m)
Flight conditions Marginal Visual Meteorological Conditions
Raw dataVTCH 241100Z VRB08KT 7000 FEW020TCU SCT025 38/21 Q1002 RETS
An error has occurred. This application may no longer respond until reloaded. Reload 🗙